Decoded Metar for YBRM (BROOME in AUSTRALIA) (IATA:BME) | Meteo·Mobile Aviation Weather
aviador You're here:

YBRM Decoded Metar

BROOME in AUSTRALIA
Report Time2019-01-20 10:30:00
UTC Time2019-01-20 10:53:51
Flight Rules vfr VFR
Wind310° at 09 kt
W.Decomp.*RWY 28: 7.9 kt HW 4.2 kt RCW
W.Rank310° ranks 9
Current wind is above 310° avg. (7.8)
Visibility9999 m
Phenomena:N/A
Clouds:N/A
Expected CloudBase > 1,200 ft AGL from Temp-Dew spread
CeilingNone
Temp31°C (ISA +16)
Dew Point28°C (84% RH)
Heat Index42.3°C
QNH1005 hPa
Density Alt2,661 ft
Elevation56 ft
Report Wrong Elevation
Raw Report
METAR YBRM 201030Z AUTO 31009KT 9999 // NCD 31/28 Q1005
RF00.0/000.0=

Extra information for YBRM:More info

Metar Taf Metar & Taf Last 4 Metars F.Rules Stats Wind Profile Meteogram Temp Stats Airport Information Weather charts Add Link Nearby VenuesMetar ALERT Operation Metar Decoded Social comments